KLPC/LPC METAR and TAF weather

Enter ICAO airport designator
Station Type Date Time Source
KLPC METAR 2020/07/14 21:56 UTC NOAA

KLPC 142156Z AUTO 26012KT 10SM 20/12 A3000 RMK AO2 SLP159 T02000122 $


Station Type Date Time Source
KLPC Decoded METAR 2020/07/14 21:56 UTC NOAA

Lompoc, Lompoc Airport, CA, United States (KLPC) 34-40N 120-28W
Jul 14, 2020 - 05:56 PM EDT / 2020.07.14 2156 UTC
Wind: from the W (260 degrees) at 14 MPH (12 KT):0
Visibility: 10 mile(s):0
Temperature: 68.0 F (20.0 C)
Dew Point: 54.0 F (12.2 C)
Relative Humidity: 60%
Pressure (altimeter): 30 in. Hg (1015 hPa)
ob: KLPC 142156Z AUTO 26012KT 10SM 20/12 A3000 RMK AO2 SLP159 T02000122
cycle: 22

Station Type Date Time Source
KLPC TAF UTC NOAA

Error!

Example: see airport list